sensor_id;sensor_type;location;lat;lon;timestamp;P1;durP1;ratioP1;P2;durP2;ratioP2
19030;SDS011;9648;51.130;13.978;2023-05-10T00:00:30;4.18;;;2.00;;
19030;SDS011;9648;51.130;13.978;2023-05-10T00:02:57;2.72;;;1.80;;
19030;SDS011;9648;51.130;13.978;2023-05-10T00:05:23;3.40;;;2.00;;
19030;SDS011;9648;51.130;13.978;2023-05-10T00:07:50;3.80;;;1.83;;
19030;SDS011;9648;51.130;13.978;2023-05-10T00:10:19;2.30;;;1.90;;
19030;SDS011;9648;51.130;13.978;2023-05-10T00:12:45;2.83;;;1.90;;
19030;SDS011;9648;51.130;13.978;2023-05-10T00:15:12;2.90;;;1.95;;
19030;SDS011;9648;51.130;13.978;2023-05-10T00:17:39;2.53;;;1.90;;
19030;SDS011;9648;51.130;13.978;2023-05-10T00:20:06;2.67;;;1.80;;
19030;SDS011;9648;51.130;13.978;2023-05-10T00:22:33;3.80;;;1.90;;
19030;SDS011;9648;51.130;13.978;2023-05-10T00:25:00;3.50;;;1.70;;
19030;SDS011;9648;51.130;13.978;2023-05-10T00:27:28;2.28;;;1.63;;
19030;SDS011;9648;51.130;13.978;2023-05-10T00:29:55;3.05;;;1.98;;
19030;SDS011;9648;51.130;13.978;2023-05-10T00:32:22;3.42;;;1.80;;
19030;SDS011;9648;51.130;13.978;2023-05-10T00:34:49;2.58;;;1.70;;
19030;SDS011;9648;51.130;13.978;2023-05-10T00:37:15;2.53;;;1.92;;
19030;SDS011;9648;51.130;13.978;2023-05-10T00:39:42;2.80;;;1.70;;
19030;SDS011;9648;51.130;13.978;2023-05-10T00:42:09;4.47;;;2.00;;
19030;SDS011;9648;51.130;13.978;2023-05-10T00:44:37;3.55;;;2.00;;
19030;SDS011;9648;51.130;13.978;2023-05-10T00:47:04;2.28;;;1.70;;
19030;SDS011;9648;51.130;13.978;2023-05-10T00:49:31;4.32;;;1.70;;
19030;SDS011;9648;51.130;13.978;2023-05-10T00:51:58;3.63;;;1.90;;
19030;SDS011;9648;51.130;13.978;2023-05-10T00:54:27;2.37;;;1.80;;
19030;SDS011;9648;51.130;13.978;2023-05-10T00:56:54;4.03;;;2.00;;
19030;SDS011;9648;51.130;13.978;2023-05-10T00:59:22;3.20;;;1.70;;
19030;SDS011;9648;51.130;13.978;2023-05-10T01:01:51;3.53;;;1.80;;
19030;SDS011;9648;51.130;13.978;2023-05-10T01:04:19;4.40;;;1.93;;
19030;SDS011;9648;51.130;13.978;2023-05-10T01:06:50;6.25;;;1.80;;
19030;SDS011;9648;51.130;13.978;2023-05-10T01:09:17;3.25;;;1.77;;
19030;SDS011;9648;51.130;13.978;2023-05-10T01:11:44;4.47;;;1.90;;
19030;SDS011;9648;51.130;13.978;2023-05-10T01:14:12;1.92;;;1.60;;
19030;SDS011;9648;51.130;13.978;2023-05-10T01:16:39;3.03;;;1.77;;
19030;SDS011;9648;51.130;13.978;2023-05-10T01:19:10;3.70;;;1.90;;
19030;SDS011;9648;51.130;13.978;2023-05-10T01:21:43;2.78;;;1.75;;
19030;SDS011;9648;51.130;13.978;2023-05-10T01:24:23;2.53;;;1.80;;
19030;SDS011;9648;51.130;13.978;2023-05-10T01:27:19;2.97;;;1.85;;
19030;SDS011;9648;51.130;13.978;2023-05-10T01:33:02;2.53;;;1.63;;
19030;SDS011;9648;51.130;13.978;2023-05-10T01:35:37;3.20;;;1.70;;
19030;SDS011;9648;51.130;13.978;2023-05-10T01:38:11;3.42;;;1.75;;
19030;SDS011;9648;51.130;13.978;2023-05-10T01:40:46;3.13;;;2.17;;
19030;SDS011;9648;51.130;13.978;2023-05-10T01:43:24;3.85;;;1.90;;
19030;SDS011;9648;51.130;13.978;2023-05-10T01:45:57;3.17;;;1.80;;
19030;SDS011;9648;51.130;13.978;2023-05-10T01:48:35;2.97;;;1.73;;
19030;SDS011;9648;51.130;13.978;2023-05-10T01:51:04;3.17;;;1.63;;
19030;SDS011;9648;51.130;13.978;2023-05-10T01:53:32;2.47;;;1.70;;
19030;SDS011;9648;51.130;13.978;2023-05-10T01:56:01;2.58;;;1.80;;
19030;SDS011;9648;51.130;13.978;2023-05-10T01:58:30;3.53;;;1.70;;
19030;SDS011;9648;51.130;13.978;2023-05-10T02:00:59;4.50;;;2.10;;
19030;SDS011;9648;51.130;13.978;2023-05-10T02:03:27;3.40;;;1.85;;
19030;SDS011;9648;51.130;13.978;2023-05-10T02:05:58;2.63;;;1.80;;
19030;SDS011;9648;51.130;13.978;2023-05-10T02:08:25;2.33;;;1.65;;
19030;SDS011;9648;51.130;13.978;2023-05-10T02:10:53;2.33;;;1.67;;
19030;SDS011;9648;51.130;13.978;2023-05-10T02:13:23;2.57;;;1.73;;
19030;SDS011;9648;51.130;13.978;2023-05-10T02:15:51;2.55;;;1.90;;
19030;SDS011;9648;51.130;13.978;2023-05-10T02:18:20;4.05;;;1.67;;
19030;SDS011;9648;51.130;13.978;2023-05-10T02:20:49;3.05;;;1.70;;
19030;SDS011;9648;51.130;13.978;2023-05-10T02:23:20;2.63;;;1.70;;
19030;SDS011;9648;51.130;13.978;2023-05-10T02:25:47;2.67;;;1.67;;
19030;SDS011;9648;51.130;13.978;2023-05-10T02:28:16;4.95;;;1.83;;
19030;SDS011;9648;51.130;13.978;2023-05-10T02:30:44;2.97;;;1.90;;
19030;SDS011;9648;51.130;13.978;2023-05-10T02:33:13;2.45;;;1.70;;
19030;SDS011;9648;51.130;13.978;2023-05-10T02:35:40;2.47;;;1.73;;
19030;SDS011;9648;51.130;13.978;2023-05-10T02:38:07;1.95;;;1.52;;
19030;SDS011;9648;51.130;13.978;2023-05-10T02:40:38;2.50;;;1.63;;
19030;SDS011;9648;51.130;13.978;2023-05-10T02:43:07;2.53;;;1.70;;
19030;SDS011;9648;51.130;13.978;2023-05-10T02:45:38;2.03;;;1.67;;
19030;SDS011;9648;51.130;13.978;2023-05-10T02:48:06;4.15;;;1.77;;
19030;SDS011;9648;51.130;13.978;2023-05-10T02:50:35;4.35;;;1.90;;
19030;SDS011;9648;51.130;13.978;2023-05-10T02:53:06;3.33;;;1.90;;
19030;SDS011;9648;51.130;13.978;2023-05-10T02:55:38;4.63;;;1.90;;
19030;SDS011;9648;51.130;13.978;2023-05-10T02:58:08;3.35;;;1.83;;
19030;SDS011;9648;51.130;13.978;2023-05-10T03:00:35;2.30;;;1.73;;
19030;SDS011;9648;51.130;13.978;2023-05-10T03:03:02;2.47;;;1.80;;
19030;SDS011;9648;51.130;13.978;2023-05-10T03:05:29;3.83;;;1.75;;
19030;SDS011;9648;51.130;13.978;2023-05-10T03:07:56;3.50;;;1.80;;
19030;SDS011;9648;51.130;13.978;2023-05-10T03:10:24;2.42;;;1.85;;
19030;SDS011;9648;51.130;13.978;2023-05-10T03:13:00;3.05;;;1.95;;
19030;SDS011;9648;51.130;13.978;2023-05-10T03:15:34;3.72;;;1.85;;
19030;SDS011;9648;51.130;13.978;2023-05-10T03:18:10;3.50;;;1.80;;
19030;SDS011;9648;51.130;13.978;2023-05-10T03:20:46;4.47;;;1.70;;
19030;SDS011;9648;51.130;13.978;2023-05-10T03:23:19;4.80;;;1.90;;
19030;SDS011;9648;51.130;13.978;2023-05-10T03:25:49;4.03;;;1.85;;
19030;SDS011;9648;51.130;13.978;2023-05-10T03:28:18;2.92;;;1.70;;
19030;SDS011;9648;51.130;13.978;2023-05-10T03:30:47;3.58;;;2.00;;
19030;SDS011;9648;51.130;13.978;2023-05-10T03:33:15;2.47;;;1.70;;
19030;SDS011;9648;51.130;13.978;2023-05-10T03:35:42;1.98;;;1.70;;
19030;SDS011;9648;51.130;13.978;2023-05-10T03:38:10;4.50;;;1.73;;
19030;SDS011;9648;51.130;13.978;2023-05-10T03:40:37;2.67;;;1.70;;
19030;SDS011;9648;51.130;13.978;2023-05-10T03:43:05;3.13;;;1.90;;
19030;SDS011;9648;51.130;13.978;2023-05-10T03:45:33;2.25;;;1.80;;
19030;SDS011;9648;51.130;13.978;2023-05-10T03:48:00;3.15;;;1.83;;
19030;SDS011;9648;51.130;13.978;2023-05-10T03:50:27;3.47;;;1.80;;
19030;SDS011;9648;51.130;13.978;2023-05-10T03:52:54;2.75;;;1.70;;
19030;SDS011;9648;51.130;13.978;2023-05-10T03:55:22;4.50;;;1.92;;
19030;SDS011;9648;51.130;13.978;2023-05-10T03:57:49;3.58;;;1.70;;
19030;SDS011;9648;51.130;13.978;2023-05-10T04:00:16;4.28;;;1.85;;
19030;SDS011;9648;51.130;13.978;2023-05-10T04:02:44;4.35;;;1.88;;
19030;SDS011;9648;51.130;13.978;2023-05-10T04:05:11;3.53;;;1.80;;
19030;SDS011;9648;51.130;13.978;2023-05-10T04:07:38;4.43;;;2.10;;
19030;SDS011;9648;51.130;13.978;2023-05-10T04:10:05;3.50;;;2.08;;
19030;SDS011;9648;51.130;13.978;2023-05-10T04:12:32;2.63;;;1.95;;
19030;SDS011;9648;51.130;13.978;2023-05-10T04:14:59;2.65;;;1.70;;
19030;SDS011;9648;51.130;13.978;2023-05-10T04:17:26;2.78;;;1.70;;
19030;SDS011;9648;51.130;13.978;2023-05-10T04:19:54;2.72;;;1.67;;
19030;SDS011;9648;51.130;13.978;2023-05-10T04:22:22;3.22;;;1.60;;
19030;SDS011;9648;51.130;13.978;2023-05-10T04:24:49;3.78;;;1.70;;
19030;SDS011;9648;51.130;13.978;2023-05-10T04:27:15;2.60;;;1.80;;
19030;SDS011;9648;51.130;13.978;2023-05-10T04:29:42;2.83;;;1.90;;
19030;SDS011;9648;51.130;13.978;2023-05-10T04:32:09;3.13;;;1.88;;
19030;SDS011;9648;51.130;13.978;2023-05-10T04:34:36;4.95;;;1.80;;
19030;SDS011;9648;51.130;13.978;2023-05-10T04:37:04;3.10;;;1.92;;
19030;SDS011;9648;51.130;13.978;2023-05-10T04:39:32;4.03;;;1.90;;
19030;SDS011;9648;51.130;13.978;2023-05-10T04:42:00;2.50;;;1.80;;
19030;SDS011;9648;51.130;13.978;2023-05-10T04:44:28;2.85;;;1.80;;
19030;SDS011;9648;51.130;13.978;2023-05-10T04:47:01;4.32;;;1.88;;
19030;SDS011;9648;51.130;13.978;2023-05-10T04:49:28;3.65;;;1.92;;
19030;SDS011;9648;51.130;13.978;2023-05-10T04:51:55;2.53;;;1.80;;
19030;SDS011;9648;51.130;13.978;2023-05-10T04:54:24;3.42;;;1.80;;
19030;SDS011;9648;51.130;13.978;2023-05-10T04:56:50;3.37;;;1.90;;
19030;SDS011;9648;51.130;13.978;2023-05-10T04:59:17;3.53;;;1.83;;
19030;SDS011;9648;51.130;13.978;2023-05-10T05:01:44;7.35;;;2.00;;
19030;SDS011;9648;51.130;13.978;2023-05-10T05:04:11;2.72;;;1.70;;
19030;SDS011;9648;51.130;13.978;2023-05-10T05:06:39;2.63;;;1.88;;
19030;SDS011;9648;51.130;13.978;2023-05-10T05:09:06;2.97;;;2.05;;
19030;SDS011;9648;51.130;13.978;2023-05-10T05:11:34;2.50;;;2.03;;
19030;SDS011;9648;51.130;13.978;2023-05-10T05:14:01;3.60;;;1.80;;
19030;SDS011;9648;51.130;13.978;2023-05-10T05:16:29;3.60;;;1.95;;
19030;SDS011;9648;51.130;13.978;2023-05-10T05:18:56;3.10;;;1.90;;
19030;SDS011;9648;51.130;13.978;2023-05-10T05:21:23;2.72;;;1.80;;
19030;SDS011;9648;51.130;13.978;2023-05-10T05:23:51;2.40;;;1.77;;
19030;SDS011;9648;51.130;13.978;2023-05-10T05:26:18;2.93;;;1.83;;
19030;SDS011;9648;51.130;13.978;2023-05-10T05:28:46;4.63;;;2.20;;
19030;SDS011;9648;51.130;13.978;2023-05-10T05:31:13;3.70;;;1.88;;
19030;SDS011;9648;51.130;13.978;2023-05-10T05:33:40;4.32;;;2.00;;
19030;SDS011;9648;51.130;13.978;2023-05-10T05:36:07;3.78;;;2.00;;
19030;SDS011;9648;51.130;13.978;2023-05-10T05:38:34;3.00;;;1.80;;
19030;SDS011;9648;51.130;13.978;2023-05-10T05:41:01;3.85;;;2.00;;
19030;SDS011;9648;51.130;13.978;2023-05-10T05:43:28;2.90;;;2.00;;
19030;SDS011;9648;51.130;13.978;2023-05-10T05:45:57;4.50;;;2.20;;
19030;SDS011;9648;51.130;13.978;2023-05-10T05:48:26;3.38;;;1.77;;
19030;SDS011;9648;51.130;13.978;2023-05-10T05:50:55;4.07;;;1.80;;
19030;SDS011;9648;51.130;13.978;2023-05-10T05:53:22;3.33;;;2.07;;
19030;SDS011;9648;51.130;13.978;2023-05-10T05:55:52;7.32;;;2.10;;
19030;SDS011;9648;51.130;13.978;2023-05-10T05:58:20;4.20;;;1.98;;
19030;SDS011;9648;51.130;13.978;2023-05-10T06:00:47;3.30;;;2.15;;
19030;SDS011;9648;51.130;13.978;2023-05-10T06:03:15;4.22;;;2.10;;
19030;SDS011;9648;51.130;13.978;2023-05-10T06:05:42;3.10;;;1.95;;
19030;SDS011;9648;51.130;13.978;2023-05-10T06:08:09;4.15;;;2.05;;
19030;SDS011;9648;51.130;13.978;2023-05-10T06:10:36;4.20;;;1.90;;
19030;SDS011;9648;51.130;13.978;2023-05-10T06:13:03;4.07;;;1.95;;
19030;SDS011;9648;51.130;13.978;2023-05-10T06:15:30;3.78;;;1.70;;
19030;SDS011;9648;51.130;13.978;2023-05-10T06:17:57;3.17;;;2.00;;
19030;SDS011;9648;51.130;13.978;2023-05-10T06:20:26;4.47;;;1.92;;
19030;SDS011;9648;51.130;13.978;2023-05-10T06:22:52;3.33;;;2.05;;
19030;SDS011;9648;51.130;13.978;2023-05-10T06:25:19;5.07;;;2.00;;
19030;SDS011;9648;51.130;13.978;2023-05-10T06:27:46;6.07;;;2.20;;
19030;SDS011;9648;51.130;13.978;2023-05-10T06:30:13;3.95;;;2.03;;
19030;SDS011;9648;51.130;13.978;2023-05-10T06:32:41;4.45;;;2.13;;
19030;SDS011;9648;51.130;13.978;2023-05-10T06:35:09;5.43;;;2.85;;
19030;SDS011;9648;51.130;13.978;2023-05-10T06:37:37;3.10;;;1.95;;
19030;SDS011;9648;51.130;13.978;2023-05-10T06:40:05;6.18;;;2.10;;
19030;SDS011;9648;51.130;13.978;2023-05-10T06:42:32;2.63;;;1.98;;
19030;SDS011;9648;51.130;13.978;2023-05-10T06:44:59;4.40;;;2.17;;
19030;SDS011;9648;51.130;13.978;2023-05-10T06:47:26;3.72;;;2.00;;
19030;SDS011;9648;51.130;13.978;2023-05-10T06:49:53;3.20;;;2.10;;
19030;SDS011;9648;51.130;13.978;2023-05-10T06:52:20;3.53;;;2.33;;
19030;SDS011;9648;51.130;13.978;2023-05-10T06:54:49;4.00;;;2.00;;
19030;SDS011;9648;51.130;13.978;2023-05-10T06:57:16;4.13;;;2.30;;
19030;SDS011;9648;51.130;13.978;2023-05-10T06:59:44;2.83;;;2.35;;
19030;SDS011;9648;51.130;13.978;2023-05-10T07:02:11;5.18;;;2.50;;
19030;SDS011;9648;51.130;13.978;2023-05-10T07:04:37;2.50;;;2.20;;
19030;SDS011;9648;51.130;13.978;2023-05-10T07:07:04;5.65;;;2.42;;
19030;SDS011;9648;51.130;13.978;2023-05-10T07:09:31;3.55;;;2.15;;
19030;SDS011;9648;51.130;13.978;2023-05-10T07:12:00;2.90;;;2.25;;
19030;SDS011;9648;51.130;13.978;2023-05-10T07:14:26;5.15;;;2.33;;
19030;SDS011;9648;51.130;13.978;2023-05-10T07:16:53;4.78;;;2.40;;
19030;SDS011;9648;51.130;13.978;2023-05-10T07:19:21;5.97;;;2.50;;
19030;SDS011;9648;51.130;13.978;2023-05-10T07:21:48;3.13;;;2.38;;
19030;SDS011;9648;51.130;13.978;2023-05-10T07:24:15;4.77;;;2.57;;
19030;SDS011;9648;51.130;13.978;2023-05-10T07:26:42;6.30;;;2.55;;
19030;SDS011;9648;51.130;13.978;2023-05-10T07:29:10;4.10;;;2.10;;
19030;SDS011;9648;51.130;13.978;2023-05-10T07:31:37;3.15;;;2.30;;
19030;SDS011;9648;51.130;13.978;2023-05-10T07:34:06;3.53;;;2.28;;
19030;SDS011;9648;51.130;13.978;2023-05-10T07:36:33;3.63;;;2.42;;
19030;SDS011;9648;51.130;13.978;2023-05-10T07:39:00;5.35;;;2.70;;
19030;SDS011;9648;51.130;13.978;2023-05-10T07:41:27;5.18;;;2.50;;
19030;SDS011;9648;51.130;13.978;2023-05-10T07:43:54;3.13;;;2.60;;
19030;SDS011;9648;51.130;13.978;2023-05-10T07:46:22;2.92;;;2.42;;
19030;SDS011;9648;51.130;13.978;2023-05-10T07:48:49;5.25;;;2.42;;
19030;SDS011;9648;51.130;13.978;2023-05-10T07:51:15;4.00;;;2.37;;
19030;SDS011;9648;51.130;13.978;2023-05-10T07:53:42;3.88;;;2.67;;
19030;SDS011;9648;51.130;13.978;2023-05-10T07:56:23;4.47;;;2.67;;
19030;SDS011;9648;51.130;13.978;2023-05-10T07:58:52;3.95;;;2.30;;
19030;SDS011;9648;51.130;13.978;2023-05-10T08:01:21;3.60;;;2.38;;
19030;SDS011;9648;51.130;13.978;2023-05-10T08:03:48;3.83;;;2.53;;
19030;SDS011;9648;51.130;13.978;2023-05-10T08:06:16;5.03;;;2.50;;
19030;SDS011;9648;51.130;13.978;2023-05-10T08:08:45;3.20;;;2.30;;
19030;SDS011;9648;51.130;13.978;2023-05-10T08:11:14;5.55;;;2.60;;
19030;SDS011;9648;51.130;13.978;2023-05-10T08:13:41;3.90;;;2.70;;
19030;SDS011;9648;51.130;13.978;2023-05-10T08:16:08;4.32;;;2.40;;
19030;SDS011;9648;51.130;13.978;2023-05-10T08:18:36;3.03;;;2.30;;
19030;SDS011;9648;51.130;13.978;2023-05-10T08:21:03;3.27;;;2.30;;
19030;SDS011;9648;51.130;13.978;2023-05-10T08:23:33;4.55;;;2.58;;
19030;SDS011;9648;51.130;13.978;2023-05-10T08:26:00;5.63;;;2.10;;
19030;SDS011;9648;51.130;13.978;2023-05-10T08:28:27;5.47;;;2.30;;
19030;SDS011;9648;51.130;13.978;2023-05-10T08:30:53;5.43;;;2.50;;
19030;SDS011;9648;51.130;13.978;2023-05-10T08:33:20;3.03;;;2.38;;
19030;SDS011;9648;51.130;13.978;2023-05-10T08:35:48;3.60;;;2.45;;
19030;SDS011;9648;51.130;13.978;2023-05-10T08:38:15;4.10;;;2.30;;
19030;SDS011;9648;51.130;13.978;2023-05-10T08:40:42;3.37;;;2.30;;
19030;SDS011;9648;51.130;13.978;2023-05-10T08:43:11;4.72;;;2.40;;
19030;SDS011;9648;51.130;13.978;2023-05-10T08:45:41;3.55;;;2.13;;
19030;SDS011;9648;51.130;13.978;2023-05-10T08:48:10;4.47;;;2.13;;
19030;SDS011;9648;51.130;13.978;2023-05-10T08:50:38;4.35;;;2.47;;
19030;SDS011;9648;51.130;13.978;2023-05-10T08:53:09;3.90;;;2.17;;
19030;SDS011;9648;51.130;13.978;2023-05-10T08:55:37;4.97;;;2.45;;
19030;SDS011;9648;51.130;13.978;2023-05-10T08:58:05;5.05;;;2.40;;
19030;SDS011;9648;51.130;13.978;2023-05-10T09:00:32;4.40;;;2.10;;
19030;SDS011;9648;51.130;13.978;2023-05-10T09:03:00;3.10;;;2.40;;
19030;SDS011;9648;51.130;13.978;2023-05-10T09:05:27;4.00;;;2.50;;
19030;SDS011;9648;51.130;13.978;2023-05-10T09:07:54;4.00;;;2.30;;
19030;SDS011;9648;51.130;13.978;2023-05-10T09:10:23;3.38;;;2.03;;
19030;SDS011;9648;51.130;13.978;2023-05-10T09:12:52;3.80;;;2.17;;
19030;SDS011;9648;51.130;13.978;2023-05-10T09:15:22;3.53;;;2.17;;
19030;SDS011;9648;51.130;13.978;2023-05-10T09:17:49;3.35;;;2.20;;
19030;SDS011;9648;51.130;13.978;2023-05-10T09:20:16;3.35;;;2.10;;
19030;SDS011;9648;51.130;13.978;2023-05-10T09:22:43;3.58;;;2.20;;
19030;SDS011;9648;51.130;13.978;2023-05-10T09:25:11;3.58;;;2.20;;
19030;SDS011;9648;51.130;13.978;2023-05-10T09:27:41;4.57;;;2.25;;
19030;SDS011;9648;51.130;13.978;2023-05-10T09:30:11;2.67;;;2.00;;
19030;SDS011;9648;51.130;13.978;2023-05-10T09:32:42;3.08;;;2.05;;
19030;SDS011;9648;51.130;13.978;2023-05-10T09:35:11;4.60;;;2.17;;
19030;SDS011;9648;51.130;13.978;2023-05-10T09:37:39;3.03;;;2.28;;
19030;SDS011;9648;51.130;13.978;2023-05-10T09:40:08;3.83;;;2.30;;
19030;SDS011;9648;51.130;13.978;2023-05-10T09:42:38;3.90;;;2.13;;
19030;SDS011;9648;51.130;13.978;2023-05-10T09:45:08;2.88;;;2.17;;
19030;SDS011;9648;51.130;13.978;2023-05-10T09:47:35;3.25;;;2.20;;
19030;SDS011;9648;51.130;13.978;2023-05-10T09:50:02;4.22;;;2.05;;
19030;SDS011;9648;51.130;13.978;2023-05-10T09:52:30;2.47;;;1.90;;
19030;SDS011;9648;51.130;13.978;2023-05-10T09:55:12;3.10;;;2.00;;
19030;SDS011;9648;51.130;13.978;2023-05-10T09:57:39;3.53;;;2.10;;
19030;SDS011;9648;51.130;13.978;2023-05-10T10:00:08;3.50;;;2.13;;
19030;SDS011;9648;51.130;13.978;2023-05-10T10:02:37;2.85;;;2.00;;
19030;SDS011;9648;51.130;13.978;2023-05-10T10:05:05;3.72;;;2.00;;
19030;SDS011;9648;51.130;13.978;2023-05-10T10:07:33;3.83;;;2.05;;
19030;SDS011;9648;51.130;13.978;2023-05-10T10:10:01;3.60;;;2.20;;
19030;SDS011;9648;51.130;13.978;2023-05-10T10:12:30;3.95;;;2.10;;
19030;SDS011;9648;51.130;13.978;2023-05-10T10:14:57;2.65;;;2.08;;
19030;SDS011;9648;51.130;13.978;2023-05-10T10:17:27;2.45;;;2.10;;
19030;SDS011;9648;51.130;13.978;2023-05-10T10:19:57;3.67;;;2.05;;
19030;SDS011;9648;51.130;13.978;2023-05-10T10:22:27;3.65;;;2.00;;
19030;SDS011;9648;51.130;13.978;2023-05-10T10:24:53;4.18;;;2.03;;
19030;SDS011;9648;51.130;13.978;2023-05-10T10:27:23;2.67;;;1.98;;
19030;SDS011;9648;51.130;13.978;2023-05-10T10:29:59;2.60;;;2.10;;
19030;SDS011;9648;51.130;13.978;2023-05-10T10:32:33;4.63;;;2.40;;
19030;SDS011;9648;51.130;13.978;2023-05-10T10:35:09;3.13;;;2.00;;
19030;SDS011;9648;51.130;13.978;2023-05-10T10:37:46;4.30;;;2.20;;
19030;SDS011;9648;51.130;13.978;2023-05-10T10:40:23;4.40;;;2.20;;
19030;SDS011;9648;51.130;13.978;2023-05-10T10:42:51;4.83;;;2.07;;
19030;SDS011;9648;51.130;13.978;2023-05-10T10:45:21;3.27;;;2.27;;
19030;SDS011;9648;51.130;13.978;2023-05-10T10:47:56;3.40;;;2.20;;
19030;SDS011;9648;51.130;13.978;2023-05-10T10:50:47;3.28;;;2.13;;
19030;SDS011;9648;51.130;13.978;2023-05-10T10:53:23;4.20;;;2.20;;
19030;SDS011;9648;51.130;13.978;2023-05-10T10:55:55;2.60;;;2.00;;
19030;SDS011;9648;51.130;13.978;2023-05-10T10:58:31;4.00;;;2.08;;
19030;SDS011;9648;51.130;13.978;2023-05-10T11:01:09;4.85;;;2.30;;
19030;SDS011;9648;51.130;13.978;2023-05-10T11:03:39;2.83;;;1.97;;
19030;SDS011;9648;51.130;13.978;2023-05-10T11:06:06;2.67;;;2.07;;
19030;SDS011;9648;51.130;13.978;2023-05-10T11:08:34;3.53;;;2.20;;
19030;SDS011;9648;51.130;13.978;2023-05-10T11:11:07;3.08;;;2.00;;
19030;SDS011;9648;51.130;13.978;2023-05-10T11:13:37;3.53;;;2.10;;
19030;SDS011;9648;51.130;13.978;2023-05-10T11:16:13;2.42;;;2.00;;
19030;SDS011;9648;51.130;13.978;2023-05-10T11:18:52;3.10;;;1.88;;
19030;SDS011;9648;51.130;13.978;2023-05-10T11:21:23;2.95;;;2.10;;
19030;SDS011;9648;51.130;13.978;2023-05-10T11:23:51;4.05;;;1.95;;
19030;SDS011;9648;51.130;13.978;2023-05-10T11:26:21;2.28;;;2.00;;
19030;SDS011;9648;51.130;13.978;2023-05-10T11:28:51;2.83;;;2.00;;
19030;SDS011;9648;51.130;13.978;2023-05-10T11:31:19;3.47;;;1.90;;
19030;SDS011;9648;51.130;13.978;2023-05-10T11:33:47;2.85;;;1.92;;
19030;SDS011;9648;51.130;13.978;2023-05-10T11:36:18;3.00;;;2.20;;
19030;SDS011;9648;51.130;13.978;2023-05-10T11:38:46;4.60;;;2.10;;
19030;SDS011;9648;51.130;13.978;2023-05-10T11:41:14;6.13;;;2.40;;
19030;SDS011;9648;51.130;13.978;2023-05-10T11:43:42;2.63;;;2.00;;
19030;SDS011;9648;51.130;13.978;2023-05-10T11:46:13;2.40;;;1.83;;
19030;SDS011;9648;51.130;13.978;2023-05-10T11:48:40;3.15;;;2.03;;
19030;SDS011;9648;51.130;13.978;2023-05-10T11:51:08;3.40;;;2.13;;
19030;SDS011;9648;51.130;13.978;2023-05-10T11:53:37;7.60;;;2.13;;
19030;SDS011;9648;51.130;13.978;2023-05-10T11:56:05;4.30;;;2.35;;
19030;SDS011;9648;51.130;13.978;2023-05-10T11:58:32;4.40;;;1.70;;
19030;SDS011;9648;51.130;13.978;2023-05-10T12:00:59;2.53;;;1.90;;
19030;SDS011;9648;51.130;13.978;2023-05-10T12:03:27;3.30;;;2.25;;
19030;SDS011;9648;51.130;13.978;2023-05-10T12:05:54;4.25;;;2.15;;
19030;SDS011;9648;51.130;13.978;2023-05-10T12:08:22;4.97;;;2.10;;
19030;SDS011;9648;51.130;13.978;2023-05-10T12:10:53;4.25;;;2.30;;
19030;SDS011;9648;51.130;13.978;2023-05-10T12:13:29;5.78;;;2.10;;
19030;SDS011;9648;51.130;13.978;2023-05-10T12:15:57;7.07;;;2.05;;
19030;SDS011;9648;51.130;13.978;2023-05-10T12:18:24;4.60;;;2.20;;
19030;SDS011;9648;51.130;13.978;2023-05-10T12:20:51;5.45;;;2.22;;
19030;SDS011;9648;51.130;13.978;2023-05-10T12:23:19;4.45;;;2.28;;
19030;SDS011;9648;51.130;13.978;2023-05-10T12:25:46;4.63;;;2.22;;
19030;SDS011;9648;51.130;13.978;2023-05-10T12:28:15;4.50;;;2.30;;
19030;SDS011;9648;51.130;13.978;2023-05-10T12:30:45;5.65;;;2.40;;
19030;SDS011;9648;51.130;13.978;2023-05-10T12:33:13;5.55;;;2.30;;
19030;SDS011;9648;51.130;13.978;2023-05-10T12:35:45;4.22;;;2.38;;
19030;SDS011;9648;51.130;13.978;2023-05-10T12:38:24;2.42;;;1.98;;
19030;SDS011;9648;51.130;13.978;2023-05-10T12:40:51;7.18;;;2.20;;
19030;SDS011;9648;51.130;13.978;2023-05-10T12:43:20;3.88;;;2.42;;
19030;SDS011;9648;51.130;13.978;2023-05-10T12:45:46;4.30;;;2.15;;
19030;SDS011;9648;51.130;13.978;2023-05-10T12:48:14;2.47;;;2.20;;
19030;SDS011;9648;51.130;13.978;2023-05-10T12:50:41;3.35;;;2.10;;
19030;SDS011;9648;51.130;13.978;2023-05-10T12:53:08;3.50;;;2.10;;
19030;SDS011;9648;51.130;13.978;2023-05-10T12:55:34;2.70;;;1.90;;
19030;SDS011;9648;51.130;13.978;2023-05-10T12:58:01;4.63;;;2.05;;
19030;SDS011;9648;51.130;13.978;2023-05-10T13:00:29;3.65;;;2.05;;
19030;SDS011;9648;51.130;13.978;2023-05-10T13:02:56;4.40;;;2.10;;
19030;SDS011;9648;51.130;13.978;2023-05-10T13:05:23;4.38;;;2.05;;
19030;SDS011;9648;51.130;13.978;2023-05-10T13:07:50;5.28;;;2.15;;
19030;SDS011;9648;51.130;13.978;2023-05-10T13:10:17;4.18;;;2.40;;
19030;SDS011;9648;51.130;13.978;2023-05-10T13:12:44;4.55;;;2.17;;
19030;SDS011;9648;51.130;13.978;2023-05-10T13:15:10;3.93;;;2.10;;
19030;SDS011;9648;51.130;13.978;2023-05-10T13:17:38;3.28;;;2.03;;
19030;SDS011;9648;51.130;13.978;2023-05-10T13:20:07;3.85;;;2.05;;
19030;SDS011;9648;51.130;13.978;2023-05-10T13:22:35;2.20;;;1.90;;
19030;SDS011;9648;51.130;13.978;2023-05-10T13:25:02;3.38;;;2.08;;
19030;SDS011;9648;51.130;13.978;2023-05-10T13:27:29;4.32;;;2.00;;
19030;SDS011;9648;51.130;13.978;2023-05-10T13:29:56;2.88;;;1.98;;
19030;SDS011;9648;51.130;13.978;2023-05-10T13:32:24;3.20;;;1.90;;
19030;SDS011;9648;51.130;13.978;2023-05-10T13:34:52;3.08;;;1.75;;
19030;SDS011;9648;51.130;13.978;2023-05-10T13:37:19;3.17;;;1.90;;
19030;SDS011;9648;51.130;13.978;2023-05-10T13:39:46;4.90;;;1.80;;
19030;SDS011;9648;51.130;13.978;2023-05-10T13:42:13;4.30;;;2.17;;
19030;SDS011;9648;51.130;13.978;2023-05-10T13:44:40;3.67;;;1.95;;
19030;SDS011;9648;51.130;13.978;2023-05-10T13:47:08;4.43;;;1.90;;
19030;SDS011;9648;51.130;13.978;2023-05-10T13:49:35;2.83;;;1.90;;
19030;SDS011;9648;51.130;13.978;2023-05-10T13:52:04;3.23;;;2.07;;
19030;SDS011;9648;51.130;13.978;2023-05-10T13:54:32;3.83;;;1.95;;
19030;SDS011;9648;51.130;13.978;2023-05-10T13:56:59;3.40;;;2.15;;
19030;SDS011;9648;51.130;13.978;2023-05-10T13:59:26;3.75;;;2.20;;
19030;SDS011;9648;51.130;13.978;2023-05-10T14:01:52;2.95;;;1.98;;
19030;SDS011;9648;51.130;13.978;2023-05-10T14:04:19;3.72;;;2.10;;
19030;SDS011;9648;51.130;13.978;2023-05-10T14:06:46;3.03;;;1.90;;
19030;SDS011;9648;51.130;13.978;2023-05-10T14:09:14;3.40;;;2.30;;
19030;SDS011;9648;51.130;13.978;2023-05-10T14:11:41;2.58;;;1.70;;
19030;SDS011;9648;51.130;13.978;2023-05-10T14:14:10;4.90;;;2.00;;
19030;SDS011;9648;51.130;13.978;2023-05-10T14:16:36;3.15;;;1.90;;
19030;SDS011;9648;51.130;13.978;2023-05-10T14:19:03;3.42;;;2.00;;
19030;SDS011;9648;51.130;13.978;2023-05-10T14:21:30;5.15;;;1.90;;
19030;SDS011;9648;51.130;13.978;2023-05-10T14:23:57;3.65;;;1.98;;
19030;SDS011;9648;51.130;13.978;2023-05-10T14:26:25;3.77;;;1.97;;
19030;SDS011;9648;51.130;13.978;2023-05-10T14:28:52;4.33;;;2.07;;
19030;SDS011;9648;51.130;13.978;2023-05-10T14:31:19;4.53;;;2.10;;
19030;SDS011;9648;51.130;13.978;2023-05-10T14:33:46;2.70;;;1.95;;
19030;SDS011;9648;51.130;13.978;2023-05-10T14:36:13;2.33;;;1.83;;
19030;SDS011;9648;51.130;13.978;2023-05-10T14:38:40;3.30;;;2.00;;
19030;SDS011;9648;51.130;13.978;2023-05-10T14:41:07;5.28;;;2.17;;
19030;SDS011;9648;51.130;13.978;2023-05-10T14:43:35;4.00;;;1.98;;
19030;SDS011;9648;51.130;13.978;2023-05-10T14:46:02;4.60;;;2.10;;
19030;SDS011;9648;51.130;13.978;2023-05-10T14:48:29;4.05;;;2.05;;
19030;SDS011;9648;51.130;13.978;2023-05-10T14:50:56;3.30;;;1.90;;
19030;SDS011;9648;51.130;13.978;2023-05-10T14:53:23;3.78;;;2.10;;
19030;SDS011;9648;51.130;13.978;2023-05-10T14:55:49;3.10;;;1.98;;
19030;SDS011;9648;51.130;13.978;2023-05-10T14:58:16;4.30;;;2.20;;